createdAt,value
2019-02-27T00:00:58.580Z,103020.92
2019-02-27T00:03:29.093Z,103020.88
2019-02-27T00:05:58.375Z,103019.97
2019-02-27T00:08:27.522Z,103016.81
2019-02-27T00:10:56.543Z,103014.59
2019-02-27T00:13:26.578Z,103008.42
2019-02-27T00:15:55.637Z,103009.69
2019-02-27T00:18:24.649Z,103007.00
2019-02-27T00:20:55.268Z,103004.75
2019-02-27T00:23:25.839Z,102999.46
2019-02-27T00:25:54.921Z,103002.52
2019-02-27T00:28:30.342Z,102996.73
2019-02-27T00:30:59.155Z,102932.59
2019-02-27T00:33:50.943Z,102986.55
2019-02-27T00:36:23.731Z,102982.55
2019-02-27T00:38:58.011Z,102987.34
2019-02-27T00:41:27.581Z,102986.83
2019-02-27T00:44:04.836Z,102989.88
2019-02-27T00:46:38.062Z,102981.49
2019-02-27T00:49:12.234Z,102988.50
2019-02-27T00:51:45.506Z,102984.93
2019-02-27T00:54:14.671Z,102983.13
2019-02-27T00:56:45.680Z,102982.66
2019-02-27T00:59:14.633Z,102977.33
2019-02-27T01:01:57.853Z,102978.60
2019-02-27T01:04:28.995Z,102983.41
2019-02-27T01:06:58.149Z,102978.12
2019-02-27T01:09:27.434Z,102974.12
2019-02-27T01:11:56.438Z,102972.33
2019-02-27T01:14:25.371Z,102964.80
2019-02-27T01:16:54.762Z,102963.47
2019-02-27T01:19:23.780Z,102961.25
2019-02-27T01:21:52.732Z,102957.25
2019-02-27T01:24:21.690Z,102954.56
2019-02-27T01:26:50.626Z,102955.41
2019-02-27T01:29:19.545Z,102947.92
2019-02-27T01:31:48.598Z,102942.18
2019-02-27T01:34:17.399Z,102938.60
2019-02-27T01:36:46.462Z,102937.28
2019-02-27T01:39:15.392Z,102929.75
2019-02-27T01:41:44.303Z,102928.00
2019-02-27T01:44:13.664Z,102927.53
2019-02-27T01:46:43.218Z,102924.38
2019-02-27T01:49:15.912Z,102916.42
2019-02-27T01:51:46.576Z,102919.94
2019-02-27T01:54:15.734Z,102907.61
2019-02-27T01:56:44.621Z,102904.09
2019-02-27T01:59:14.025Z,102906.20
2019-02-27T02:01:44.180Z,102904.88
2019-02-27T02:04:13.246Z,102896.08
2019-02-27T02:06:42.147Z,102889.02
2019-02-27T02:09:32.379Z,102886.29
2019-02-27T02:12:02.287Z,102887.61
2019-02-27T02:15:06.809Z,102889.77
2019-02-27T02:18:19.183Z,102881.38
2019-02-27T02:21:04.704Z,102881.33
2019-02-27T02:24:08.037Z,102880.39
2019-02-27T02:26:54.076Z,102879.50
2019-02-27T02:30:05.435Z,102872.84
2019-02-27T02:33:30.244Z,102860.53
2019-02-27T02:36:07.371Z,102858.70
2019-02-27T02:38:55.012Z,102852.99
2019-02-27T02:41:48.865Z,102854.31
2019-02-27T02:45:06.011Z,102849.84
2019-02-27T02:48:11.866Z,102848.05
2019-02-27T02:51:11.960Z,102848.41
2019-02-27T02:54:16.407Z,102834.78
2019-02-27T02:57:22.736Z,102821.56
2019-02-27T02:59:59.479Z,102821.52
2019-02-27T03:03:15.591Z,102822.36
2019-02-27T03:06:00.124Z,102818.41
2019-02-27T03:08:54.969Z,102820.56
2019-02-27T03:11:59.462Z,102820.52
2019-02-27T03:14:53.084Z,102811.72
2019-02-27T03:17:42.749Z,102812.55
2019-02-27T03:20:42.987Z,102810.77
2019-02-27T03:24:08.290Z,102804.13
2019-02-27T03:27:00.372Z,102798.82
2019-02-27T03:30:00.576Z,102795.72
2019-02-27T03:32:45.381Z,102787.39
2019-02-27T03:35:54.566Z,102786.92
2019-02-27T03:39:20.205Z,102786.45
2019-02-27T03:42:23.786Z,102778.92
2019-02-27T03:45:17.037Z,102779.77
2019-02-27T03:47:56.850Z,102777.07
2019-02-27T03:51:09.906Z,102775.34
2019-02-27T03:53:56.136Z,102775.28
2019-02-27T03:57:21.531Z,102776.98
2019-02-27T04:00:19.366Z,102773.45
2019-02-27T04:03:18.231Z,102774.28
2019-02-27T04:06:30.114Z,102775.17
2019-02-27T04:08:59.716Z,102777.28
2019-02-27T04:11:29.105Z,102775.08
2019-02-27T04:14:04.846Z,102765.39
2019-02-27T04:16:31.055Z,102768.01
2019-02-27T04:19:04.621Z,102765.38
2019-02-27T04:21:30.585Z,102763.59
2019-02-27T04:23:59.319Z,102763.13
2019-02-27T04:26:28.200Z,102754.34
2019-02-27T04:28:57.222Z,102755.18
2019-02-27T04:31:29.615Z,102752.50
2019-02-27T04:33:59.789Z,102750.30
2019-02-27T04:36:27.202Z,102743.70
2019-02-27T04:38:56.110Z,102741.06
2019-02-27T04:41:24.950Z,102741.91
2019-02-27T04:43:55.920Z,102742.34
2019-02-27T04:46:24.788Z,102739.66
2019-02-27T04:48:53.740Z,102738.77
2019-02-27T04:51:22.640Z,102732.14
2019-02-27T04:53:51.494Z,102735.19
2019-02-27T04:56:23.089Z,102732.13
2019-02-27T04:58:52.978Z,102730.34
2019-02-27T05:01:21.831Z,102731.66
2019-02-27T05:03:50.773Z,102726.77
2019-02-27T05:06:19.632Z,102724.55
2019-02-27T05:08:48.564Z,102721.45
2019-02-27T05:11:17.443Z,102726.28
2019-02-27T05:13:48.128Z,102725.80
2019-02-27T05:16:16.985Z,102725.80
2019-02-27T05:18:45.804Z,102726.65
2019-02-27T05:21:18.940Z,102727.91
2019-02-27T05:23:45.529Z,102725.70
2019-02-27T05:26:14.516Z,102723.02
2019-02-27T05:28:43.390Z,102723.45
2019-02-27T05:31:12.164Z,102717.75
2019-02-27T05:33:41.105Z,102722.53
2019-02-27T05:36:09.893Z,102726.48
2019-02-27T05:38:41.031Z,102726.86
2019-02-27T05:41:09.418Z,102722.91
2019-02-27T05:43:38.211Z,102724.59
2019-02-27T05:46:07.007Z,102720.65
2019-02-27T05:48:36.080Z,102725.47
2019-02-27T05:51:07.683Z,102725.89
2019-02-27T05:53:35.446Z,102721.48
2019-02-27T05:56:04.504Z,102728.05
2019-02-27T05:58:33.390Z,102718.80
2019-02-27T06:01:04.961Z,102727.53
2019-02-27T06:03:32.990Z,102721.80
2019-02-27T06:06:01.872Z,102722.67
2019-02-27T06:08:35.142Z,102719.58
2019-02-27T06:11:05.169Z,102721.30
2019-02-27T06:13:36.913Z,102719.52
2019-02-27T06:16:08.916Z,102716.00
2019-02-27T06:18:36.212Z,102718.16
2019-02-27T06:21:07.806Z,102726.05
2019-02-27T06:23:37.755Z,102722.52
2019-02-27T06:26:08.480Z,102716.80
2019-02-27T06:28:37.335Z,102715.04
2019-02-27T06:31:06.158Z,102717.20
2019-02-27T06:33:35.084Z,102712.36
2019-02-27T06:36:07.764Z,102711.89
2019-02-27T06:38:36.614Z,102712.36
2019-02-27T06:41:05.419Z,102707.47
2019-02-27T06:43:35.865Z,102706.16
2019-02-27T06:46:04.918Z,102710.09
2019-02-27T06:48:33.783Z,102704.37
2019-02-27T06:51:02.638Z,102702.59
2019-02-27T06:53:31.581Z,102694.27
2019-02-27T06:56:03.116Z,102690.31
2019-02-27T06:58:31.024Z,102691.63
2019-02-27T07:00:59.796Z,102682.85
2019-02-27T07:03:29.533Z,102681.06
2019-02-27T07:05:59.299Z,102673.60
2019-02-27T07:08:28.385Z,102676.23
2019-02-27T07:11:02.204Z,102674.92
2019-02-27T07:13:29.883Z,102674.92
2019-02-27T07:15:59.980Z,102673.13
2019-02-27T07:18:28.907Z,102677.92
2019-02-27T07:21:12.980Z,102680.17
2019-02-27T07:23:41.845Z,102672.70
2019-02-27T07:26:13.228Z,102674.45
2019-02-27T07:28:43.607Z,102674.45
2019-02-27T07:31:12.543Z,102667.88
2019-02-27T07:33:41.373Z,102670.08
2019-02-27T07:36:10.279Z,102665.72
2019-02-27T07:38:39.069Z,102663.09
2019-02-27T07:41:08.047Z,102656.09
2019-02-27T07:43:37.082Z,102649.11
2019-02-27T07:46:25.031Z,102644.69
2019-02-27T07:49:03.793Z,102650.00
2019-02-27T07:51:58.881Z,102654.36
2019-02-27T07:54:48.449Z,102654.38
2019-02-27T07:57:22.666Z,102656.15
2019-02-27T08:00:26.349Z,102654.42
2019-02-27T08:03:14.613Z,102648.80
2019-02-27T08:05:43.012Z,102652.74
2019-02-27T08:08:14.860Z,102658.94
2019-02-27T08:13:21.035Z,102644.08
2019-02-27T08:16:02.105Z,102651.13
2019-02-27T08:18:49.939Z,102643.33
2019-02-27T08:21:22.019Z,102649.06
2019-02-27T08:23:57.029Z,102642.08
2019-02-27T08:26:49.066Z,102635.61
2019-02-27T08:29:18.455Z,102633.88
2019-02-27T08:32:16.228Z,102639.66
2019-02-27T08:35:37.408Z,102637.55
2019-02-27T08:38:27.450Z,102637.61
2019-02-27T08:41:02.910Z,102625.46
2019-02-27T08:43:33.629Z,102629.66
2019-02-27T08:46:12.167Z,102625.02
2019-02-27T08:48:59.247Z,102629.11
2019-02-27T08:55:05.725Z,102626.86
2019-02-27T08:57:49.734Z,102616.16
2019-02-27T09:00:23.213Z,102622.55
2019-02-27T09:03:03.698Z,102611.83
2019-02-27T09:05:55.454Z,102608.09
2019-02-27T09:08:26.699Z,102608.79
2019-02-27T09:11:06.548Z,102605.20
2019-02-27T09:13:44.453Z,102599.73
2019-02-27T09:16:23.036Z,102591.00
2019-02-27T09:18:52.896Z,102580.45
2019-02-27T09:21:32.391Z,102581.63
2019-02-27T09:24:06.824Z,102580.55
2019-02-27T09:27:13.804Z,102574.19
2019-02-27T09:29:44.063Z,102556.38
2019-02-27T09:32:33.626Z,102550.95
2019-02-27T09:35:38.503Z,102546.62
2019-02-27T09:38:12.017Z,102540.99
2019-02-27T09:40:44.342Z,102540.19
2019-02-27T09:43:13.794Z,102533.72
2019-02-27T09:45:50.733Z,102534.33
2019-02-27T09:48:19.487Z,102528.73
2019-02-27T09:50:57.035Z,102523.96
2019-02-27T10:33:07.088Z,102477.34
2019-02-27T10:35:39.169Z,102478.14
2019-02-27T10:38:10.676Z,102471.84
2019-02-27T10:40:41.001Z,102466.45
2019-02-27T10:43:13.713Z,102459.29
2019-02-27T10:45:48.494Z,102459.28
2019-02-27T10:48:17.101Z,102457.83
2019-02-27T10:50:46.821Z,102452.45
2019-02-27T10:53:27.461Z,102441.70
2019-02-27T10:56:02.547Z,102443.24
2019-02-27T10:58:36.491Z,102428.94
2019-02-27T11:04:16.047Z,102423.81
2019-02-27T11:06:46.058Z,102415.23
2019-02-27T11:09:25.629Z,102415.23
2019-02-27T11:12:02.667Z,102416.02
2019-02-27T11:14:51.738Z,102408.84
2019-02-27T11:17:32.620Z,102404.30
2019-02-27T11:20:20.435Z,102388.14
2019-02-27T11:22:53.852Z,102388.83
2019-02-27T11:25:49.119Z,102393.04
2019-02-27T11:28:23.903Z,102389.81
2019-02-27T11:31:01.668Z,102382.13
2019-02-27T11:33:33.430Z,102383.38
2019-02-27T11:36:05.746Z,102386.73
2019-02-27T11:38:45.515Z,102377.83
2019-02-27T11:41:16.545Z,102375.48
2019-02-27T11:43:47.149Z,102370.98
2019-02-27T11:46:17.595Z,102376.83
2019-02-27T11:48:51.419Z,102376.33
2019-02-27T11:51:27.910Z,102384.62
2019-02-27T11:54:09.220Z,102376.16
2019-02-27T11:56:47.442Z,102372.97
2019-02-27T11:59:35.202Z,102364.84
2019-02-27T12:02:16.878Z,102359.42
2019-02-27T12:04:54.404Z,102356.42
2019-02-27T12:07:24.291Z,102351.04
2019-02-27T12:09:59.755Z,102338.27
2019-02-27T12:12:52.599Z,102335.88
2019-02-27T12:15:32.498Z,102331.56
2019-02-27T12:18:32.225Z,102324.08
2019-02-27T12:21:37.941Z,102318.73
2019-02-27T12:24:21.512Z,102315.33
2019-02-27T12:27:07.307Z,102308.14
2019-02-27T12:29:40.801Z,102297.11
2019-02-27T12:32:12.255Z,102297.06
2019-02-27T12:34:42.610Z,102298.28
2019-02-27T12:37:28.096Z,102304.05
2019-02-27T12:39:56.823Z,102303.25
2019-02-27T12:42:53.096Z,102283.64
2019-02-27T12:45:43.081Z,102276.64
2019-02-27T12:48:20.934Z,102265.07
2019-02-27T12:50:58.155Z,102262.70
2019-02-27T12:53:42.483Z,102257.35
2019-02-27T12:56:26.254Z,102250.14
2019-02-27T12:59:09.528Z,102250.90
2019-02-27T13:02:24.385Z,102246.39
2019-02-27T13:04:58.019Z,102246.37
2019-02-27T13:07:35.257Z,102238.61
2019-02-27T13:10:26.142Z,102226.86
2019-02-27T13:13:08.541Z,102216.05
2019-02-27T13:16:03.823Z,102211.64
2019-02-27T13:19:13.569Z,102207.69
2019-02-27T13:22:00.152Z,102207.55
2019-02-27T13:24:39.946Z,102203.92
2019-02-27T13:27:40.304Z,102204.31
2019-02-27T13:30:17.427Z,102200.63
2019-02-27T13:32:48.985Z,102193.41
2019-02-27T13:35:25.421Z,102188.00
2019-02-27T13:37:58.563Z,102184.66
2019-02-27T13:40:50.101Z,102180.36
2019-02-27T13:43:27.207Z,102169.95
2019-02-27T13:46:07.328Z,102157.92
2019-02-27T13:48:44.198Z,102154.83
2019-02-27T13:51:15.557Z,102153.19
2019-02-27T13:53:52.018Z,102142.05
2019-02-27T13:56:28.888Z,102137.50
2019-02-27T13:59:11.012Z,102127.20
2019-02-27T14:01:52.875Z,102123.09
2019-02-27T14:04:28.041Z,102119.77
2019-02-27T14:07:02.724Z,102111.61
2019-02-27T14:09:33.843Z,102118.28
2019-02-27T14:12:10.454Z,102101.86
2019-02-27T14:14:46.497Z,102103.37
2019-02-27T14:17:21.438Z,102099.39
2019-02-27T14:20:16.214Z,102093.36
2019-02-27T14:23:14.574Z,102089.80
2019-02-27T14:25:54.941Z,102090.86
2019-02-27T14:28:33.171Z,102085.52
2019-02-27T14:31:23.027Z,102082.59
2019-02-27T14:34:09.168Z,102071.59
2019-02-27T14:37:03.343Z,102076.78
2019-02-27T14:39:44.883Z,102068.01
2019-02-27T14:42:37.123Z,102058.86
2019-02-27T14:45:33.774Z,102057.47
2019-02-27T14:51:23.231Z,102048.78
2019-02-27T14:54:26.067Z,102044.75
2019-02-27T14:57:19.004Z,102040.04
2019-02-27T15:00:18.518Z,102035.28
2019-02-27T15:03:10.945Z,102027.81
2019-02-27T15:06:03.200Z,102026.66
2019-02-27T15:08:58.073Z,102023.47
2019-02-27T15:11:35.279Z,102010.14
2019-02-27T15:14:18.205Z,102005.06
2019-02-27T15:17:05.556Z,101996.86
2019-02-27T15:19:41.693Z,101998.52
2019-02-27T15:22:23.733Z,101993.36
2019-02-27T15:24:56.339Z,101986.70
2019-02-27T15:27:26.057Z,101975.91
2019-02-27T15:30:46.392Z,101975.98
2019-02-27T15:33:23.284Z,101967.41
2019-02-27T15:36:08.904Z,101962.47
2019-02-27T15:38:48.429Z,101954.62
2019-02-27T15:41:40.000Z,101952.41
2019-02-27T15:48:12.368Z,101932.74
2019-02-27T15:50:56.525Z,101929.39
2019-02-27T15:53:28.424Z,101922.80
2019-02-27T15:56:21.583Z,101918.48
2019-02-27T15:59:08.722Z,101922.53
2019-02-27T16:02:02.365Z,101911.11
2019-02-27T16:04:41.442Z,101907.69
2019-02-27T16:07:19.071Z,101908.18
2019-02-27T16:10:16.339Z,101906.94
2019-02-27T16:13:00.433Z,101901.66
2019-02-27T16:16:11.087Z,101894.14
2019-02-27T16:26:27.757Z,101869.05
2019-02-27T16:28:56.976Z,101865.62
2019-02-27T16:31:26.431Z,101867.48
2019-02-27T16:33:58.510Z,101858.61
2019-02-27T16:36:36.017Z,101852.05
2019-02-27T16:38:59.373Z,101844.98
2019-02-27T16:41:29.292Z,101847.69
2019-02-27T16:43:58.731Z,101850.42
2019-02-27T16:46:27.958Z,101843.37
2019-02-27T16:49:02.339Z,101838.57
2019-02-27T16:51:34.674Z,101836.44
2019-02-27T16:54:08.493Z,101834.28
2019-02-27T16:56:47.563Z,101821.05
2019-02-27T16:59:15.576Z,101815.36
2019-02-27T17:01:50.774Z,101819.41
2019-02-27T17:04:22.206Z,101802.64
2019-02-27T17:06:52.198Z,101803.57
2019-02-27T17:09:21.978Z,101802.31
2019-02-27T17:11:51.323Z,101792.16
2019-02-27T17:14:24.555Z,101795.33
2019-02-27T17:16:54.947Z,101798.53
2019-02-27T17:19:24.358Z,101795.92
2019-02-27T17:21:58.838Z,101789.34
2019-02-27T17:24:36.740Z,101786.77
2019-02-27T17:27:12.490Z,101775.73
2019-02-27T17:29:48.617Z,101772.71
2019-02-27T17:32:17.979Z,101767.03
2019-02-27T17:34:52.949Z,101755.56
2019-02-27T17:37:28.602Z,101755.61
2019-02-27T17:39:59.274Z,101744.13
2019-02-27T17:42:29.484Z,101741.55
2019-02-27T17:45:01.701Z,101728.73
2019-02-27T17:47:34.122Z,101733.67
2019-02-27T17:50:04.909Z,101723.07
2019-02-27T17:52:37.047Z,101716.94
2019-02-27T17:55:09.813Z,101716.08
2019-02-27T17:57:42.588Z,101711.68
2019-02-27T18:00:19.680Z,101705.55
2019-02-27T18:02:59.204Z,101700.70
2019-02-27T18:05:38.482Z,101701.21
2019-02-27T18:08:09.668Z,101698.14
2019-02-27T18:10:45.348Z,101688.03
2019-02-27T18:13:19.773Z,101687.16
2019-02-27T18:15:53.250Z,101683.20
2019-02-27T18:18:27.286Z,101678.41
2019-02-27T18:20:59.509Z,101667.84
2019-02-27T18:23:34.752Z,101670.97
2019-02-27T18:26:09.091Z,101671.00
2019-02-27T18:29:07.666Z,101665.73
2019-02-27T18:31:37.520Z,101661.77
2019-02-27T18:34:10.292Z,101659.97
2019-02-27T18:36:46.385Z,101664.87
2019-02-27T18:39:18.373Z,101662.26
2019-02-27T18:44:32.010Z,101660.97
2019-02-27T18:47:11.088Z,101654.78
2019-02-27T18:49:42.440Z,101655.28
2019-02-27T18:52:11.957Z,101651.77
2019-02-27T18:54:41.469Z,101652.27
2019-02-27T18:57:12.859Z,101650.07
2019-02-27T18:59:46.157Z,101648.77
2019-02-27T19:02:19.514Z,101644.41
2019-02-27T19:04:48.967Z,101645.75
2019-02-27T19:07:21.788Z,101642.67
2019-02-27T19:09:53.855Z,101641.41
2019-02-27T19:12:28.434Z,101642.76
2019-02-27T19:15:39.483Z,101637.06
2019-02-27T19:19:07.042Z,101640.17
2019-02-27T19:21:37.887Z,101630.08
2019-02-27T19:24:17.558Z,101634.09
2019-02-27T19:26:49.446Z,101625.30
2019-02-27T19:29:23.997Z,101617.36
2019-02-27T19:31:58.238Z,101622.67
2019-02-27T19:34:27.650Z,101618.27
2019-02-27T19:37:06.007Z,101623.18
2019-02-27T19:39:38.520Z,101619.64
2019-02-27T19:42:16.225Z,101615.69
2019-02-27T19:44:48.275Z,101613.97
2019-02-27T19:47:18.638Z,101599.84
2019-02-27T19:49:52.944Z,101600.73
2019-02-27T19:52:31.955Z,101591.45
2019-02-27T19:55:05.352Z,101584.88
2019-02-27T19:57:39.283Z,101584.02
2019-02-27T20:00:14.440Z,101576.97
2019-02-27T20:02:43.744Z,101573.91
2019-02-27T20:05:19.067Z,101568.20
2019-02-27T20:07:50.547Z,101565.59
2019-02-27T20:10:20.094Z,101559.42
2019-02-27T20:12:53.885Z,101557.67
2019-02-27T20:15:24.978Z,101555.91
2019-02-27T20:18:07.889Z,101557.30
2019-02-27T20:20:41.032Z,101560.84
2019-02-27T20:23:16.436Z,101550.73
2019-02-27T20:25:46.013Z,101550.75
2019-02-27T20:28:18.227Z,101547.23
2019-02-27T20:30:47.823Z,101539.29
2019-02-27T20:33:17.204Z,101529.13
2019-02-27T20:35:52.393Z,101522.11
2019-02-27T20:38:23.373Z,101518.15
2019-02-27T20:40:52.895Z,101515.52
2019-02-27T20:43:22.481Z,101513.35
2019-02-27T20:46:00.691Z,101512.92
2019-02-27T20:48:50.701Z,101507.63
2019-02-27T20:51:20.403Z,101510.73
2019-02-27T20:53:59.607Z,101501.50
2019-02-27T20:56:29.266Z,101494.02
2019-02-27T20:59:15.878Z,101486.52
2019-02-27T21:01:49.278Z,101475.48
2019-02-27T21:04:28.058Z,101473.76
2019-02-27T21:07:03.685Z,101468.91
2019-02-27T21:09:33.492Z,101469.80
2019-02-27T21:12:04.548Z,101466.29
2019-02-27T21:14:44.495Z,101453.93
2019-02-27T21:17:22.098Z,101449.95
2019-02-27T21:20:02.141Z,101447.80
2019-02-27T21:22:34.608Z,101450.47
2019-02-27T21:25:14.911Z,101453.56
2019-02-27T21:27:59.973Z,101443.49
2019-02-27T21:30:38.852Z,101458.03
2019-02-27T21:33:11.080Z,101466.44
2019-02-27T21:35:44.680Z,101462.91
2019-02-27T21:38:16.649Z,101464.69
2019-02-27T21:40:52.365Z,101460.31
2019-02-27T21:43:26.302Z,101451.50
2019-02-27T21:45:55.622Z,101455.05
2019-02-27T21:48:26.890Z,101447.98
2019-02-27T21:51:01.284Z,101443.63
2019-02-27T21:53:33.575Z,101440.98
2019-02-27T21:56:15.167Z,101440.98
2019-02-27T21:58:44.475Z,101433.48
2019-02-27T22:01:19.367Z,101427.80
2019-02-27T22:03:48.236Z,101421.62
2019-02-27T22:06:17.349Z,101419.87
2019-02-27T22:08:46.637Z,101417.23
2019-02-27T22:11:15.916Z,101413.27
2019-02-27T22:13:46.152Z,101409.30
2019-02-27T22:17:04.886Z,101404.94
2019-02-27T22:19:30.525Z,101396.94
2019-02-27T22:22:01.682Z,101389.50
2019-02-27T22:24:30.563Z,101394.80
2019-02-27T22:26:59.807Z,101391.72
2019-02-27T22:29:29.024Z,101385.99
2019-02-27T22:31:58.127Z,101386.47
2019-02-27T22:34:28.950Z,101388.69
2019-02-27T22:36:59.473Z,101388.69
2019-02-27T22:39:31.615Z,101386.93
2019-02-27T22:41:59.477Z,101381.20
2019-02-27T22:44:29.104Z,101374.14
2019-02-27T22:46:58.996Z,101375.48
2019-02-27T22:49:31.941Z,101370.19
2019-02-27T22:52:01.460Z,101372.01
2019-02-27T22:54:33.236Z,101360.54
2019-02-27T22:57:01.510Z,101355.70
2019-02-27T22:59:30.505Z,101357.95
2019-02-27T23:01:59.650Z,101354.44
2019-02-27T23:04:29.964Z,101354.89
2019-02-27T23:06:59.702Z,101356.66
2019-02-27T23:09:28.800Z,101354.95
2019-02-27T23:11:57.994Z,101357.59
2019-02-27T23:14:27.029Z,101349.66
2019-02-27T23:16:55.972Z,101341.73
2019-02-27T23:19:25.234Z,101335.56
2019-02-27T23:22:00.725Z,101325.91
2019-02-27T23:24:29.765Z,101326.80
2019-02-27T23:26:58.887Z,101325.05
2019-02-27T23:29:28.256Z,101321.53
2019-02-27T23:31:57.531Z,101312.27
2019-02-27T23:34:31.247Z,101314.07
2019-02-27T23:37:00.483Z,101311.00
2019-02-27T23:39:29.618Z,101313.66
2019-02-27T23:42:00.288Z,101313.22
2019-02-27T23:44:29.454Z,101310.14
2019-02-27T23:46:58.328Z,101307.09
2019-02-27T23:49:29.360Z,101304.91
2019-02-27T23:51:58.481Z,101304.47
2019-02-27T23:54:27.500Z,101300.95
2019-02-27T23:56:59.655Z,101298.36
2019-02-27T23:59:28.819Z,101286.89
